Time;durP1;ratioP1;P1;durP2;ratioP2;P2;SDS_P1;SDS_P2;PMS_P1;PMS_P2;Temp;Humidity;BMP_temperature;BMP_pressure;BME280_temperature;BME280_humidity;BME280_pressure;Samples;Min_cycle;Max_cycle;Signal;HPM_P1;HPM_P2
2022/05/03 00:02:21;;;;;;;9.45;5.45;;;9.30;73.10;;;;;;5070217;28;20048;-66
2022/05/03 00:05:24;;;;;;;7.25;5.22;;;9.30;73.10;;;;;;5070185;28;20049;-66
2022/05/03 00:08:30;;;;;;;8.23;5.45;;;9.30;73.20;;;;;;5069967;28;20045;-66
2022/05/03 00:11:09;;;;;;;10.80;5.55;;;9.30;73.10;;;;;;5081111;28;20051;-66
2022/05/03 00:13:53;;;;;;;7.82;5.53;;;9.20;73.70;;;;;;5090219;28;20051;-66
2022/05/03 00:16:20;;;;;;;7.57;6.28;;;9.20;74.00;;;;;;5089942;28;20511;-66
2022/05/03 00:18:46;;;;;;;10.25;6.30;;;9.10;74.00;;;;;;5090138;28;20499;-66
2022/05/03 00:21:12;;;;;;;7.18;6.47;;;9.10;74.20;;;;;;5090140;28;20420;-66
2022/05/03 00:23:38;;;;;;;9.05;6.53;;;9.10;74.00;;;;;;5082458;28;20041;-65
2022/05/03 00:26:05;;;;;;;7.90;6.10;;;9.10;74.00;;;;;;5074198;28;20039;-65
2022/05/03 00:28:31;;;;;;;8.75;5.78;;;9.10;73.90;;;;;;5083975;28;20405;-66
2022/05/03 00:30:58;;;;;;;6.68;6.07;;;9.10;73.90;;;;;;5085346;28;20047;-66
2022/05/03 00:33:24;;;;;;;8.38;6.53;;;9.10;74.00;;;;;;5075865;28;20043;-65
2022/05/03 00:35:50;;;;;;;10.95;6.72;;;9.10;74.00;;;;;;5080017;28;20076;-65
2022/05/03 00:38:16;;;;;;;7.82;6.85;;;9.10;74.20;;;;;;5082450;28;20543;-65
2022/05/03 00:40:49;;;;;;;8.35;6.50;;;9.00;74.60;;;;;;5089372;28;20060;-65
2022/05/03 00:43:30;;;;;;;9.38;6.93;;;9.00;74.60;;;;;;5076174;28;20072;-65
2022/05/03 00:46:01;;;;;;;7.65;6.75;;;9.00;74.50;;;;;;5075187;28;20489;-65
2022/05/03 00:48:48;;;;;;;7.63;6.40;;;9.00;74.50;;;;;;5069423;28;20036;-65
2022/05/03 00:51:18;;;;;;;7.57;6.40;;;9.00;74.40;;;;;;5070320;28;20124;-65
2022/05/03 00:54:26;;;;;;;7.00;6.30;;;9.00;74.30;;;;;;5067931;28;20057;-65
2022/05/03 00:57:08;;;;;;;6.85;5.72;;;9.00;74.30;;;;;;5071422;28;20045;-65
2022/05/03 01:00:05;;;;;;;9.10;6.63;;;9.00;74.60;;;;;;5072926;28;20043;-66
2022/05/03 01:02:59;;;;;;;8.48;7.03;;;8.90;74.60;;;;;;5079258;28;20055;-65
2022/05/03 01:05:50;;;;;;;8.05;7.15;;;9.00;74.60;;;;;;5069524;28;20119;-66
2022/05/03 01:08:45;;;;;;;10.10;6.87;;;8.90;74.70;;;;;;5068585;28;20118;-66
2022/05/03 01:11:34;;;;;;;8.70;7.15;;;9.00;74.70;;;;;;5068713;28;20048;-66
2022/05/03 01:14:30;;;;;;;9.88;6.72;;;8.90;74.80;;;;;;5069115;28;20163;-65
2022/05/03 01:17:02;;;;;;;7.57;6.13;;;8.90;75.10;;;;;;5070371;28;20048;-66
2022/05/03 01:19:43;;;;;;;8.75;6.93;;;8.80;75.60;;;;;;5077930;28;20040;-65
2022/05/03 01:22:54;;;;;;;8.02;6.72;;;8.80;75.30;;;;;;5088327;28;20051;-65
2022/05/03 01:25:45;;;;;;;8.55;6.75;;;8.80;75.20;;;;;;5073136;28;20578;-65
2022/05/03 01:28:19;;;;;;;8.65;6.78;;;8.80;75.30;;;;;;5085033;28;20079;-65
2022/05/03 01:30:49;;;;;;;9.05;7.50;;;8.80;75.90;;;;;;5068562;28;20040;-65
2022/05/03 01:33:36;;;;;;;10.73;8.18;;;8.80;76.00;;;;;;5068770;28;20067;-66
2022/05/03 01:36:05;;;;;;;10.05;6.47;;;8.90;76.10;;;;;;5081518;28;20421;-66
2022/05/03 01:39:11;;;;;;;9.63;7.38;;;8.80;75.90;;;;;;5075038;28;20075;-66
2022/05/03 01:41:46;;;;;;;8.73;6.93;;;8.90;76.10;;;;;;5088422;28;20493;-66
2022/05/03 01:44:43;;;;;;;9.25;7.18;;;8.80;76.20;;;;;;5070381;28;20135;-66
2022/05/03 01:47:28;;;;;;;9.32;7.32;;;8.80;76.20;;;;;;5089215;28;20435;-66
2022/05/03 01:50:20;;;;;;;8.13;6.82;;;8.80;76.30;;;;;;5069928;28;20424;-66
2022/05/03 01:53:13;;;;;;;10.25;7.25;;;8.80;76.60;;;;;;5074810;28;20084;-66
2022/05/03 01:55:55;;;;;;;;;;;8.80;76.40;;;;;;5086380;28;20485;-67
2022/05/03 01:58:35;;;;;;;11.73;7.65;;;8.70;76.50;;;;;;5087355;28;20292;-66
2022/05/03 02:01:11;;;;;;;9.13;6.80;;;8.70;76.40;;;;;;5088567;28;20036;-67
2022/05/03 02:03:49;;;;;;;9.20;7.60;;;8.70;76.40;;;;;;5088664;28;20563;-66
2022/05/03 02:06:19;;;;;;;8.45;7.32;;;8.70;76.50;;;;;;5068696;28;20049;-66
2022/05/03 02:08:55;;;;;;;10.43;8.07;;;8.70;76.50;;;;;;5079267;28;20056;-66
2022/05/03 02:11:36;;;;;;;10.65;8.68;;;8.70;76.60;;;;;;5078204;28;20062;-66
2022/05/03 02:17:19;;;;;;;13.20;9.65;;;8.70;77.00;;;;;;5080744;28;20044;-66
2022/05/03 02:20:01;;;;;;;12.13;9.65;;;8.70;76.90;;;;;;5068273;28;20048;-66
2022/05/03 02:22:34;;;;;;;12.43;9.43;;;8.80;76.90;;;;;;5072926;28;20079;-66
2022/05/03 02:25:08;;;;;;;13.85;9.25;;;8.80;77.30;;;;;;5086683;28;20046;-66
2022/05/03 02:27:35;;;;;;;13.75;10.18;;;8.90;77.20;;;;;;5090568;28;20059;-66
2022/05/03 02:30:03;;;;;;;12.88;10.07;;;8.90;77.30;;;;;;5091375;28;20051;-66
2022/05/03 02:32:38;;;;;;;14.02;10.05;;;9.00;77.30;;;;;;5091641;28;20442;-66
2022/05/03 02:35:05;;;;;;;12.77;10.20;;;9.00;77.30;;;;;;5074450;28;20059;-66
2022/05/03 02:37:38;;;;;;;13.02;10.85;;;9.00;77.50;;;;;;5090997;28;20512;-66
2022/05/03 02:40:08;;;;;;;18.35;12.35;;;9.10;77.40;;;;;;5082233;28;20079;-66
2022/05/03 02:42:34;;;;;;;15.52;11.90;;;9.10;77.50;;;;;;5076292;28;20036;-66
2022/05/03 02:45:01;;;;;;;14.88;12.05;;;9.10;77.60;;;;;;5089646;28;20066;-66
2022/05/03 02:47:33;;;;;;;17.30;12.80;;;9.10;77.50;;;;;;5091697;28;20044;-66
2022/05/03 02:50:18;;;;;;;14.70;11.80;;;9.20;77.90;;;;;;5091707;28;20866;-66
2022/05/03 02:52:58;;;;;;;15.38;11.77;;;9.20;78.20;;;;;;5080598;28;20052;-66
2022/05/03 02:55:54;;;;;;;17.13;12.65;;;9.30;78.10;;;;;;5086013;28;20048;-66
2022/05/03 02:58:37;;;;;;;17.45;12.88;;;9.40;78.00;;;;;;5081887;28;20052;-65
2022/05/03 03:01:49;;;;;;;15.40;12.35;;;9.40;78.00;;;;;;5082431;28;20813;-66
2022/05/03 03:04:23;;;;;;;15.25;13.07;;;9.50;78.00;;;;;;5074095;28;20041;-67
2022/05/03 03:06:54;;;;;;;18.25;12.65;;;9.50;78.00;;;;;;5071230;28;20049;-66
2022/05/03 03:09:43;;;;;;;17.13;12.75;;;9.60;78.00;;;;;;5071100;28;20047;-67
2022/05/03 03:12:40;;;;;;;15.73;12.07;;;9.60;78.10;;;;;;5087229;28;20044;-67
2022/05/03 03:15:08;;;;;;;16.38;12.90;;;9.70;78.20;;;;;;5075132;28;20166;-66
2022/05/03 03:17:48;;;;;;;14.88;12.40;;;9.70;78.30;;;;;;5081789;28;20036;-65
2022/05/03 03:20:17;;;;;;;17.25;14.70;;;9.70;78.50;;;;;;5091466;28;20047;-66
2022/05/03 03:22:46;;;;;;;23.42;15.68;;;9.70;78.30;;;;;;5071189;28;20045;-66
2022/05/03 03:25:20;;;;;;;19.27;14.98;;;9.70;78.40;;;;;;5070719;28;20040;-66
2022/05/03 03:27:48;;;;;;;18.10;13.98;;;9.80;78.30;;;;;;5070898;28;20044;-66
2022/05/03 03:30:16;;;;;;;24.90;14.00;;;9.80;78.30;;;;;;5086191;28;20493;-66
2022/05/03 03:32:47;;;;;;;17.40;13.63;;;9.80;78.20;;;;;;5072627;28;20067;-67
2022/05/03 03:35:14;;;;;;;20.58;14.63;;;9.80;78.30;;;;;;5089697;28;20047;-66
2022/05/03 03:37:52;;;;;;;19.63;15.82;;;9.80;78.30;;;;;;5091067;28;20040;-66
2022/05/03 03:40:19;;;;;;;21.92;15.07;;;9.80;78.30;;;;;;5090934;28;20051;-66
2022/05/03 03:42:45;;;;;;;19.05;14.82;;;9.90;78.30;;;;;;5090831;28;20051;-66
2022/05/03 03:45:13;;;;;;;19.02;14.68;;;10.00;78.20;;;;;;5090705;28;20043;-66
2022/05/03 03:47:43;;;;;;;22.38;16.27;;;9.90;78.30;;;;;;5079576;28;20045;-66
2022/05/03 03:50:10;;;;;;;19.33;14.07;;;10.00;78.40;;;;;;5070442;28;20045;-66
2022/05/03 03:52:38;;;;;;;18.67;14.02;;;10.00;78.40;;;;;;5080694;28;20130;-66
2022/05/03 03:55:05;;;;;;;16.33;11.88;;;10.00;78.40;;;;;;5075994;28;20485;-66
2022/05/03 03:57:31;;;;;;;11.15;9.85;;;10.00;78.30;;;;;;5082270;28;20140;-66
2022/05/03 04:00:00;;;;;;;11.50;9.77;;;10.00;78.50;;;;;;5070492;28;20048;-66
2022/05/03 04:02:27;;;;;;;11.68;8.80;;;10.00;78.70;;;;;;5070886;28;20064;-66
2022/05/03 04:04:54;;;;;;;12.57;10.02;;;10.00;78.70;;;;;;5070088;28;20044;-66
2022/05/03 04:07:20;;;;;;;14.77;10.90;;;10.00;78.70;;;;;;5069939;28;20047;-66
2022/05/03 04:09:46;;;;;;;12.00;10.43;;;10.00;78.70;;;;;;5070628;28;20044;-67
2022/05/03 04:12:12;;;;;;;12.15;10.40;;;10.00;78.90;;;;;;5089210;28;20495;-65
2022/05/03 04:14:37;;;;;;;15.40;10.30;;;10.10;78.90;;;;;;5081478;28;20056;-66
2022/05/03 04:17:03;;;;;;;12.75;11.20;;;10.10;78.80;;;;;;5081014;28;20409;-66
2022/05/03 04:19:29;;;;;;;16.20;11.27;;;10.10;79.00;;;;;;5074442;28;20032;-66
2022/05/03 04:21:55;;;;;;;15.32;11.57;;;10.10;78.90;;;;;;5071749;28;20405;-66
2022/05/03 04:24:20;;;;;;;13.75;11.43;;;10.10;79.00;;;;;;5086847;28;20032;-64
2022/05/03 04:26:46;;;;;;;13.70;11.77;;;10.10;78.90;;;;;;5077473;28;20051;-65
2022/05/03 04:29:12;;;;;;;15.80;11.50;;;10.10;78.80;;;;;;5080462;28;20043;-65
2022/05/03 04:31:37;;;;;;;12.95;11.02;;;10.10;79.00;;;;;;5070747;28;20489;-66
2022/05/03 04:34:04;;;;;;;14.75;12.43;;;10.10;79.00;;;;;;5074922;28;20048;-64
2022/05/03 04:36:32;;;;;;;14.15;11.88;;;10.20;79.10;;;;;;5089085;28;20036;-65
2022/05/03 04:39:01;;;;;;;14.85;12.75;;;10.20;79.10;;;;;;5072938;28;20127;-65
2022/05/03 04:41:27;;;;;;;19.48;13.70;;;10.30;79.10;;;;;;5070189;28;20047;-65
2022/05/03 04:43:53;;;;;;;16.85;13.40;;;10.30;79.10;;;;;;5086014;28;20040;-65
2022/05/03 04:46:20;;;;;;;17.42;15.05;;;10.30;79.10;;;;;;5085255;28;20485;-65
2022/05/03 04:48:46;;;;;;;21.40;16.58;;;10.40;79.10;;;;;;5068474;28;20048;-64
2022/05/03 04:51:20;;;;;;;21.08;15.48;;;10.40;79.20;;;;;;5069076;28;20409;-64
2022/05/03 04:53:46;;;;;;;19.63;14.57;;;10.50;79.30;;;;;;5077515;28;20431;-66
2022/05/03 04:56:30;;;;;;;20.52;16.02;;;10.50;79.30;;;;;;5084202;28;20044;-65
2022/05/03 04:58:56;;;;;;;19.90;16.25;;;10.50;79.30;;;;;;5080815;28;20044;-64
2022/05/03 05:01:22;;;;;;;22.20;17.42;;;10.50;79.50;;;;;;5077330;28;20044;-64
2022/05/03 05:03:48;;;;;;;21.30;17.27;;;10.50;79.60;;;;;;5069362;28;20588;-65
2022/05/03 05:06:14;;;;;;;23.08;17.52;;;10.60;79.60;;;;;;5070059;28;20047;-64
2022/05/03 05:08:44;;;;;;;19.33;16.13;;;10.60;79.50;;;;;;5072593;28;20036;-65
2022/05/03 05:11:10;;;;;;;24.58;18.95;;;10.60;79.50;;;;;;5077222;28;20048;-65
2022/05/03 05:13:37;;;;;;;21.95;17.10;;;10.60;79.60;;;;;;5079998;28;20052;-65
2022/05/03 05:16:04;;;;;;;23.15;17.95;;;10.60;79.70;;;;;;5068652;28;20481;-65
2022/05/03 05:18:30;;;;;;;21.25;17.30;;;10.70;79.90;;;;;;5073056;28;20458;-66
2022/05/03 05:20:56;;;;;;;23.55;17.92;;;10.60;79.80;;;;;;5089202;28;20131;-65
2022/05/03 05:23:22;;;;;;;24.65;18.20;;;10.70;79.80;;;;;;5089076;28;20140;-66
2022/05/03 05:25:51;;;;;;;22.92;16.70;;;10.60;80.10;;;;;;5089299;28;20044;-65
2022/05/03 05:28:19;;;;;;;24.00;18.77;;;10.60;80.60;;;;;;5071239;28;20098;-66
2022/05/03 05:30:45;;;;;;;26.48;19.05;;;10.40;81.20;;;;;;5070409;28;20044;-67
2022/05/03 05:33:11;;;;;;;27.25;21.85;;;10.40;81.00;;;;;;5080663;28;20076;-66
2022/05/03 05:35:37;;;;;;;27.73;21.75;;;10.40;81.00;;;;;;5087190;28;20063;-67
2022/05/03 05:38:03;;;;;;;30.50;22.05;;;10.40;80.90;;;;;;5088884;28;20036;-65
2022/05/03 05:40:29;;;;;;;32.15;23.40;;;10.50;80.80;;;;;;5077089;28;20040;-66
2022/05/03 05:42:55;;;;;;;34.80;23.13;;;10.50;81.00;;;;;;5068879;28;20044;-65
2022/05/03 05:45:21;;;;;;;30.20;23.60;;;10.50;81.00;;;;;;5085480;28;20051;-65
2022/05/03 05:47:47;;;;;;;29.92;23.75;;;10.50;81.40;;;;;;5088269;28;20040;-65
2022/05/03 05:50:12;;;;;;;29.63;23.00;;;10.50;81.30;;;;;;5075461;28;20520;-65
2022/05/03 05:55:23;;;;;;;29.98;23.20;;;10.60;81.50;;;;;;5085550;28;20040;-65
2022/05/03 05:57:50;;;;;;;33.10;24.42;;;10.60;81.40;;;;;;5080153;28;20047;-65
2022/05/03 06:00:17;;;;;;;34.53;25.45;;;10.60;81.40;;;;;;5089066;28;20481;-64
2022/05/03 06:02:43;;;;;;;35.47;26.13;;;10.60;81.70;;;;;;5092663;28;20051;-65
2022/05/03 06:05:09;;;;;;;38.33;26.20;;;10.60;81.90;;;;;;5092254;28;20032;-65
2022/05/03 06:07:34;;;;;;;40.15;24.98;;;10.60;81.80;;;;;;5092166;28;20554;-65
2022/05/03 06:10:00;;;;;;;39.80;26.52;;;10.70;81.90;;;;;;5088573;28;20076;-65
2022/05/03 06:12:25;;;;;;;36.60;22.92;;;10.60;82.50;;;;;;5091571;28;20058;-66
2022/05/03 06:14:52;;;;;;;29.67;19.90;;;10.60;82.60;;;;;;5074428;28;20396;-65
2022/05/03 06:17:17;;;;;;;28.20;20.15;;;10.60;82.70;;;;;;5072766;28;20036;-65
2022/05/03 06:19:44;;;;;;;29.63;18.35;;;10.70;82.70;;;;;;5081830;28;20054;-66
2022/05/03 06:22:09;;;;;;;28.58;18.92;;;10.70;83.00;;;;;;5073990;28;20110;-68
2022/05/03 06:24:35;;;;;;;25.27;18.08;;;10.70;83.00;;;;;;5077209;28;20508;-66
2022/05/03 06:27:01;;;;;;;27.80;17.77;;;10.70;83.10;;;;;;5071168;28;20759;-66
2022/05/03 06:29:26;;;;;;;24.73;18.13;;;10.70;83.20;;;;;;5071532;28;20037;-66
2022/05/03 06:31:52;;;;;;;25.42;14.30;;;10.70;83.40;;;;;;5070716;28;20068;-66
2022/05/03 06:34:18;;;;;;;21.75;10.38;;;10.70;83.40;;;;;;5071807;28;20098;-66
2022/05/03 06:36:45;;;;;;;14.63;9.73;;;10.70;83.20;;;;;;5071828;28;20040;-66
2022/05/03 06:39:12;;;;;;;18.38;7.63;;;10.60;83.30;;;;;;5071641;28;20044;-65
2022/05/03 06:41:37;;;;;;;12.80;5.15;;;10.60;83.30;;;;;;5071530;28;20048;-65
2022/05/03 06:44:03;;;;;;;13.00;4.88;;;10.60;83.70;;;;;;5071482;28;20045;-67
2022/05/03 06:46:29;;;;;;;13.32;5.78;;;10.60;83.50;;;;;;5071723;28;20492;-66
2022/05/03 06:48:55;;;;;;;12.20;4.25;;;10.50;83.80;;;;;;5071480;28;20041;-66
2022/05/03 06:51:21;;;;;;;9.48;4.15;;;10.50;84.00;;;;;;5071719;28;20087;-66
2022/05/03 06:53:47;;;;;;;13.98;4.72;;;10.40;84.00;;;;;;5071136;28;20600;-66
2022/05/03 06:56:12;;;;;;;15.75;4.18;;;10.20;84.50;;;;;;5071354;28;20120;-66
2022/05/03 06:58:39;;;;;;;18.15;5.40;;;10.20;84.60;;;;;;5071521;28;20382;-66
2022/05/03 07:01:09;;;;;;;14.77;5.75;;;10.20;84.90;;;;;;5071129;28;20063;-65
2022/05/03 07:03:35;;;;;;;10.95;4.15;;;10.10;85.10;;;;;;5071434;28;20044;-66
2022/05/03 07:06:01;;;;;;;14.73;4.75;;;10.10;85.20;;;;;;5071344;28;20044;-66
2022/05/03 07:08:26;;;;;;;17.20;6.07;;;10.10;85.30;;;;;;5070301;28;20059;-66
2022/05/03 07:10:52;;;;;;;17.73;6.43;;;10.10;85.50;;;;;;5070063;28;20098;-66
2022/05/03 07:13:23;;;;;;;20.40;5.95;;;10.10;85.50;;;;;;5071389;28;20079;-66
2022/05/03 07:15:53;;;;;;;20.25;6.35;;;10.10;85.70;;;;;;5071333;28;20048;-66
2022/05/03 07:23:47;;;;;;;16.08;5.57;;;10.10;85.70;;;;;;5071146;28;20053;-64
2022/05/03 07:26:13;;;;;;;22.17;5.85;;;10.10;85.70;;;;;;5071204;28;20888;-66
2022/05/03 07:28:39;;;;;;;24.23;6.07;;;10.20;85.40;;;;;;5070989;28;20047;-66
2022/05/03 07:31:05;;;;;;;16.85;5.65;;;10.30;85.10;;;;;;5070815;28;20032;-66
2022/05/03 07:33:31;;;;;;;19.52;5.97;;;10.20;84.60;;;;;;5070409;28;20055;-66
2022/05/03 07:35:56;;;;;;;23.30;6.90;;;10.20;84.50;;;;;;5070859;28;20127;-65
2022/05/03 07:38:22;;;;;;;19.95;5.65;;;10.20;84.50;;;;;;5070812;28;20048;-65
2022/05/03 07:40:47;;;;;;;14.15;5.53;;;10.20;84.60;;;;;;5070638;28;20072;-67
2022/05/03 07:43:13;;;;;;;15.20;5.10;;;10.20;84.40;;;;;;5070597;28;20416;-65
2022/05/03 07:45:39;;;;;;;18.38;5.60;;;10.20;84.20;;;;;;5070781;28;20048;-66
2022/05/03 07:48:05;;;;;;;17.67;5.10;;;10.30;83.90;;;;;;5070274;28;20040;-65
2022/05/03 07:50:31;;;;;;;18.45;6.22;;;10.40;83.70;;;;;;5070609;28;20075;-65
2022/05/03 07:52:57;;;;;;;18.33;4.55;;;10.40;82.80;;;;;;5070521;28;20084;-65
2022/05/03 07:55:23;;;;;;;20.52;5.25;;;10.40;82.80;;;;;;5070405;28;20545;-65
2022/05/03 07:57:48;;;;;;;27.95;4.72;;;10.40;82.70;;;;;;5070425;28;20051;-65
2022/05/03 08:00:14;;;;;;;16.33;4.30;;;10.40;82.60;;;;;;5069930;28;20051;-65
2022/05/03 08:02:40;;;;;;;16.52;4.22;;;10.40;82.30;;;;;;5070134;28;20037;-65
2022/05/03 08:05:07;;;;;;;22.02;5.78;;;10.50;82.20;;;;;;5070197;28;20102;-64
2022/05/03 08:07:35;;;;;;;26.13;5.25;;;10.50;81.90;;;;;;5069386;28;20056;-65
2022/05/03 08:10:01;;;;;;;21.10;4.63;;;10.60;81.80;;;;;;5068966;28;20109;-65
2022/05/03 08:12:28;;;;;;;25.10;5.50;;;10.70;81.50;;;;;;5069898;28;20049;-65
2022/05/03 08:14:54;;;;;;;17.88;5.22;;;10.70;81.10;;;;;;5069922;28;20129;-66
2022/05/03 08:17:20;;;;;;;24.15;5.63;;;10.80;80.70;;;;;;5069790;28;20044;-65
2022/05/03 08:19:46;;;;;;;25.65;4.97;;;10.80;80.30;;;;;;5069050;28;20043;-65
2022/05/03 08:22:12;;;;;;;21.95;4.70;;;10.80;80.00;;;;;;5069720;28;20044;-65
2022/05/03 08:24:37;;;;;;;16.83;4.95;;;11.00;79.90;;;;;;5068926;28;20048;-66
2022/05/03 08:27:04;;;;;;;11.98;3.83;;;10.90;79.30;;;;;;5069717;28;20044;-66
2022/05/03 08:29:31;;;;;;;20.50;4.70;;;10.90;78.90;;;;;;5069318;28;20048;-66
2022/05/03 08:31:58;;;;;;;19.40;4.45;;;11.00;78.40;;;;;;5069685;28;20116;-66
2022/05/03 08:34:24;;;;;;;19.60;3.90;;;10.90;78.10;;;;;;5069436;28;20063;-66
2022/05/03 08:42:19;;;;;;;17.38;3.72;;;11.00;76.30;;;;;;5069445;28;20055;-65
2022/05/03 08:44:45;;;;;;;17.42;4.03;;;10.90;76.30;;;;;;5069500;28;20610;-66
2022/05/03 08:47:11;;;;;;;17.10;3.85;;;11.00;75.80;;;;;;5069477;28;20052;-66
2022/05/03 08:49:45;;;;;;;11.68;3.95;;;10.90;75.80;;;;;;5069237;28;20071;-66
2022/05/03 08:52:14;;;;;;;25.33;5.57;;;11.00;75.90;;;;;;5069046;28;20098;-66
2022/05/03 08:54:41;;;;;;;15.68;5.03;;;11.00;75.60;;;;;;5069606;28;20044;-66
2022/05/03 08:57:07;;;;;;;23.38;5.28;;;11.00;75.60;;;;;;5069155;28;20052;-65
2022/05/03 08:59:37;;;;;;;17.52;4.50;;;11.10;75.10;;;;;;5069205;28;20045;-66
2022/05/03 09:02:04;;;;;;;11.88;3.53;;;11.10;75.20;;;;;;5069355;28;20040;-65
2022/05/03 09:04:30;;;;;;;19.92;3.78;;;11.10;75.10;;;;;;5068892;28;20497;-66
2022/05/03 09:06:55;;;;;;;18.35;4.55;;;11.10;74.90;;;;;;5069300;28;20036;-65
2022/05/03 09:09:22;;;;;;;14.32;3.33;;;11.10;74.20;;;;;;5069095;28;20057;-66
2022/05/03 09:11:53;;;;;;;18.80;5.57;;;11.10;73.90;;;;;;5069108;28;20041;-66
2022/05/03 09:14:39;;;;;;;13.40;3.35;;;11.10;74.10;;;;;;5069221;28;20505;-66
2022/05/03 09:17:06;;;;;;;16.77;3.72;;;11.20;73.50;;;;;;5068864;28;20049;-66
2022/05/03 09:19:32;;;;;;;24.55;5.78;;;11.10;73.40;;;;;;5069168;28;20068;-66
2022/05/03 09:25:02;;;;;;;15.95;3.15;;;11.20;73.40;;;;;;5069094;28;20447;-65
2022/05/03 09:27:27;;;;;;;13.32;2.97;;;11.20;72.70;;;;;;5069191;28;20049;-65
2022/05/03 09:30:07;;;;;;;21.10;3.65;;;11.30;71.60;;;;;;5068920;28;20041;-66
2022/05/03 09:32:38;;;;;;;14.02;4.93;;;11.30;71.50;;;;;;5073115;28;20082;-65
2022/05/03 09:35:05;;;;;;;19.58;3.25;;;11.30;71.60;;;;;;5073232;28;20045;-64
2022/05/03 09:37:41;;;;;;;12.13;3.90;;;11.30;71.60;;;;;;5073243;28;20044;-65
2022/05/03 09:40:09;;;;;;;12.05;2.85;;;11.40;71.70;;;;;;5072595;28;20994;-64
2022/05/03 09:42:36;;;;;;;11.50;2.58;;;11.40;71.50;;;;;;5071659;28;20543;-64
2022/05/03 09:45:03;;;;;;;17.73;3.20;;;11.50;71.00;;;;;;5072630;28;20523;-65
2022/05/03 09:47:32;;;;;;;14.35;3.42;;;11.60;69.80;;;;;;5072818;28;20052;-64
2022/05/03 09:49:58;;;;;;;12.93;2.78;;;11.50;69.90;;;;;;5072666;28;20040;-64
2022/05/03 09:52:36;;;;;;;10.73;2.60;;;11.60;69.90;;;;;;5072684;28;20201;-65
2022/05/03 09:55:07;;;;;;;16.77;3.50;;;11.60;69.40;;;;;;5072716;28;20075;-64
2022/05/03 09:57:38;;;;;;;11.83;2.97;;;11.70;67.90;;;;;;5072732;28;20119;-64
2022/05/03 10:00:06;;;;;;;12.80;3.58;;;11.60;68.10;;;;;;5072369;28;20280;-64
2022/05/03 10:02:32;;;;;;;10.30;2.47;;;11.60;68.40;;;;;;5072447;28;20048;-65
2022/05/03 10:04:58;;;;;;;10.52;2.40;;;11.60;68.30;;;;;;5072687;28;20396;-64
2022/05/03 10:07:26;;;;;;;12.52;2.70;;;11.60;67.50;;;;;;5072005;28;20177;-65
2022/05/03 10:09:51;;;;;;;11.38;2.80;;;11.60;67.80;;;;;;5071411;28;20469;-65
2022/05/03 10:12:18;;;;;;;19.60;3.15;;;11.60;67.70;;;;;;5071884;28;20048;-66
2022/05/03 10:14:45;;;;;;;9.07;2.53;;;11.60;67.80;;;;;;5072317;28;20051;-64
2022/05/03 10:22:55;;;;;;;12.70;2.92;;;11.70;67.80;;;;;;5071960;28;20048;-66
2022/05/03 10:25:49;;;;;;;18.77;2.80;;;11.70;67.90;;;;;;5072141;28;20043;-65
2022/05/03 10:28:15;;;;;;;13.35;3.60;;;11.80;67.00;;;;;;5071888;28;20080;-65
2022/05/03 10:31:06;;;;;;;11.88;2.65;;;11.80;67.40;;;;;;5072126;28;20060;-65
2022/05/03 10:33:32;;;;;;;10.93;2.20;;;11.90;66.60;;;;;;5071642;28;20055;-65
2022/05/03 10:35:59;;;;;;;13.82;2.17;;;11.90;66.40;;;;;;5071868;28;20291;-65
2022/05/03 10:38:46;;;;;;;12.85;2.20;;;12.00;65.80;;;;;;5071786;28;20052;-65
2022/05/03 10:41:22;;;;;;;19.45;3.13;;;12.10;65.10;;;;;;5071808;28;20819;-65
2022/05/03 10:43:47;;;;;;;7.20;1.88;;;12.10;65.60;;;;;;5069518;28;20485;-65
2022/05/03 10:46:23;;;;;;;11.85;3.72;;;12.20;65.80;;;;;;5071699;28;20070;-66
2022/05/03 10:49:12;;;;;;;10.23;2.25;;;12.30;65.20;;;;;;5071723;28;20071;-66
2022/05/03 10:51:38;;;;;;;12.77;2.42;;;12.40;64.90;;;;;;5071695;28;20047;-65
2022/05/03 10:54:06;;;;;;;8.48;2.00;;;12.40;64.10;;;;;;5071093;28;20052;-66
2022/05/03 10:56:31;;;;;;;9.50;2.25;;;12.40;63.70;;;;;;5071528;28;20053;-65
2022/05/03 10:59:05;;;;;;;15.98;3.75;;;12.50;63.40;;;;;;5071487;28;20412;-66
2022/05/03 11:01:32;;;;;;;7.97;2.75;;;12.60;62.50;;;;;;5070317;28;20080;-66
2022/05/03 11:03:58;;;;;;;6.72;2.17;;;12.60;62.60;;;;;;5069715;28;20485;-65
2022/05/03 11:06:24;;;;;;;10.52;2.60;;;12.60;62.70;;;;;;5071545;28;20044;-65
2022/05/03 11:09:08;;;;;;;10.02;2.00;;;12.80;61.60;;;;;;5071205;28;20060;-66
2022/05/03 11:11:42;;;;;;;12.02;2.15;;;12.80;60.80;;;;;;5071251;28;20049;-66
2022/05/03 11:14:22;;;;;;;10.73;2.42;;;12.80;60.60;;;;;;5071021;28;20053;-66
2022/05/03 11:16:49;;;;;;;7.70;2.00;;;12.90;60.10;;;;;;5071217;28;20048;-66
2022/05/03 11:19:23;;;;;;;9.65;1.95;;;12.90;60.10;;;;;;5071116;28;20044;-66
2022/05/03 11:21:50;;;;;;;9.13;2.15;;;12.90;59.80;;;;;;5071050;28;20044;-66
2022/05/03 11:24:19;;;;;;;9.40;2.13;;;13.00;59.40;;;;;;5071047;28;20062;-66
2022/05/03 11:26:46;;;;;;;7.18;1.80;;;13.00;58.20;;;;;;5070879;28;20072;-66
2022/05/03 11:29:13;;;;;;;7.38;1.73;;;13.00;58.40;;;;;;5070937;28;20064;-65
2022/05/03 11:31:45;;;;;;;5.43;2.00;;;13.00;58.10;;;;;;5070598;28;20040;-65
2022/05/03 11:34:10;;;;;;;10.73;2.78;;;12.90;58.50;;;;;;5070823;28;20044;-66
2022/05/03 11:36:36;;;;;;;7.72;1.77;;;12.90;58.90;;;;;;5070862;28;20129;-65
2022/05/03 11:39:03;;;;;;;9.18;1.50;;;13.00;58.90;;;;;;5070736;28;20044;-65
2022/05/03 11:41:30;;;;;;;10.48;2.95;;;13.00;58.70;;;;;;5070898;28;20634;-66
2022/05/03 11:43:56;;;;;;;10.48;1.88;;;13.00;58.60;;;;;;5070464;28;20485;-66
2022/05/03 11:46:23;;;;;;;6.28;1.65;;;13.00;58.60;;;;;;5070642;28;20090;-67
2022/05/03 11:49:02;;;;;;;5.88;1.75;;;13.10;58.40;;;;;;5069162;28;20041;-66
2022/05/03 11:57:23;;;;;;;9.55;1.67;;;13.00;58.40;;;;;;5070631;28;20060;-65
2022/05/03 11:59:50;;;;;;;7.43;1.90;;;13.00;58.40;;;;;;5070313;28;20043;-65
2022/05/03 12:02:30;;;;;;;4.32;1.35;;;13.00;58.60;;;;;;5070416;28;20047;-66
2022/05/03 12:05:08;;;;;;;11.80;1.95;;;13.10;58.30;;;;;;5070051;28;20439;-66
2022/05/03 12:07:38;;;;;;;7.18;1.40;;;13.10;57.50;;;;;;5069861;28;20056;-66
2022/05/03 12:10:18;;;;;;;8.77;1.23;;;13.20;57.10;;;;;;5069999;28;20056;-66
2022/05/03 12:12:44;;;;;;;12.30;2.30;;;13.10;57.70;;;;;;5069746;28;20412;-66
2022/05/03 12:15:22;;;;;;;7.97;1.77;;;13.10;57.70;;;;;;5069792;28;20123;-66
2022/05/03 12:17:59;;;;;;;7.68;1.80;;;13.20;56.80;;;;;;5069741;28;20493;-66
2022/05/03 12:20:26;;;;;;;4.32;1.38;;;13.10;57.20;;;;;;5069965;28;20047;-66
2022/05/03 12:23:39;;;;;;;4.93;1.60;;;13.10;57.60;;;;;;5069784;28;20087;-66
2022/05/03 12:26:21;;;;;;;9.13;1.85;;;13.10;56.80;;;;;;5047447;28;20068;-65
2022/05/03 12:28:50;;;;;;;11.95;2.13;;;13.20;57.50;;;;;;5068961;28;20055;-66
2022/05/03 12:31:18;;;;;;;8.15;1.80;;;13.10;57.70;;;;;;5068267;28;20050;-66
2022/05/03 12:33:53;;;;;;;11.15;2.10;;;13.10;57.30;;;;;;5068339;28;20052;-66
2022/05/03 12:36:36;;;;;;;6.97;2.83;;;13.10;57.40;;;;;;5069501;28;20090;-66
2022/05/03 12:39:11;;;;;;;11.30;3.08;;;13.30;57.30;;;;;;5069787;28;20456;-66
2022/05/03 12:41:37;;;;;;;8.48;1.85;;;13.40;57.70;;;;;;5069567;28;20131;-66
2022/05/03 12:44:11;;;;;;;9.32;1.80;;;13.60;57.00;;;;;;5069462;28;20064;-66
2022/05/03 12:46:38;;;;;;;9.35;1.42;;;13.50;56.80;;;;;;5069667;28;20051;-66
2022/05/03 12:49:11;;;;;;;13.57;1.83;;;13.40;56.90;;;;;;5069430;28;20044;-66
2022/05/03 12:51:37;;;;;;;10.00;2.03;;;13.50;57.30;;;;;;5069170;28;20048;-67
2022/05/03 12:54:04;;;;;;;11.27;2.28;;;13.60;57.00;;;;;;5069426;28;20413;-66
2022/05/03 12:59:15;;;;;;;6.65;2.13;;;13.70;55.70;;;;;;5068708;28;20448;-66
2022/05/03 13:01:41;;;;;;;6.47;1.83;;;13.60;55.60;;;;;;5069326;28;20059;-66
2022/05/03 13:04:08;;;;;;;7.47;1.67;;;13.50;56.00;;;;;;5069246;28;20049;-66
2022/05/03 13:06:34;;;;;;;10.05;1.88;;;13.60;56.20;;;;;;5068784;28;20070;-66
2022/05/03 13:09:00;;;;;;;6.00;1.80;;;13.60;55.70;;;;;;5068983;28;20052;-67
2022/05/03 13:11:26;;;;;;;10.00;2.47;;;13.60;55.60;;;;;;5068805;28;20047;-67
2022/05/03 13:13:51;;;;;;;6.32;1.60;;;13.70;55.80;;;;;;5069200;28;20083;-66
2022/05/03 13:16:17;;;;;;;8.93;1.52;;;13.70;55.50;;;;;;5069422;28;20039;-66
2022/05/03 13:18:44;;;;;;;7.10;1.45;;;13.70;55.20;;;;;;5069428;28;20043;-66
2022/05/03 13:21:09;;;;;;;7.63;1.70;;;13.70;54.70;;;;;;5069199;28;20045;-66
2022/05/03 13:23:35;;;;;;;5.78;1.88;;;13.60;54.90;;;;;;5069185;28;20033;-67
2022/05/03 13:26:00;;;;;;;7.93;2.10;;;13.80;54.10;;;;;;5068656;28;20125;-66
2022/05/03 13:28:28;;;;;;;5.38;1.50;;;13.80;53.30;;;;;;5069295;28;20074;-66
2022/05/03 13:30:54;;;;;;;11.30;1.90;;;13.60;53.70;;;;;;5068902;28;20049;-66
2022/05/03 13:33:20;;;;;;;6.68;1.77;;;13.60;54.50;;;;;;5069190;28;20056;-66
2022/05/03 13:41:14;;;;;;;9.93;2.05;;;13.80;54.10;;;;;;5068873;28;20493;-66